sensor_id;sensor_type;location;lat;lon;timestamp;temperature;humidity
5868;DHT22;2960;49.142;7.768;2023-05-10T00:02:14;16.20;76.50
5868;DHT22;2960;49.142;7.768;2023-05-10T00:04:41;16.30;76.60
5868;DHT22;2960;49.142;7.768;2023-05-10T00:07:08;16.30;76.60
5868;DHT22;2960;49.142;7.768;2023-05-10T00:09:36;16.30;76.60
5868;DHT22;2960;49.142;7.768;2023-05-10T00:12:04;16.20;76.50
5868;DHT22;2960;49.142;7.768;2023-05-10T00:14:32;16.20;76.50
5868;DHT22;2960;49.142;7.768;2023-05-10T00:16:59;16.20;76.60
5868;DHT22;2960;49.142;7.768;2023-05-10T00:19:26;16.30;76.60
5868;DHT22;2960;49.142;7.768;2023-05-10T00:21:54;16.20;76.50
5868;DHT22;2960;49.142;7.768;2023-05-10T00:24:21;16.20;76.50
5868;DHT22;2960;49.142;7.768;2023-05-10T00:26:48;16.20;76.60
5868;DHT22;2960;49.142;7.768;2023-05-10T00:29:17;16.30;76.70
5868;DHT22;2960;49.142;7.768;2023-05-10T00:31:44;16.20;76.60
5868;DHT22;2960;49.142;7.768;2023-05-10T00:34:11;16.20;76.70
5868;DHT22;2960;49.142;7.768;2023-05-10T00:36:38;16.20;77.40
5868;DHT22;2960;49.142;7.768;2023-05-10T00:39:05;16.20;76.60
5868;DHT22;2960;49.142;7.768;2023-05-10T00:41:32;16.20;76.60
5868;DHT22;2960;49.142;7.768;2023-05-10T00:43:59;16.20;76.60
5868;DHT22;2960;49.142;7.768;2023-05-10T00:46:29;16.20;76.60
5868;DHT22;2960;49.142;7.768;2023-05-10T00:48:56;16.20;76.70
5868;DHT22;2960;49.142;7.768;2023-05-10T00:51:23;16.20;76.70
5868;DHT22;2960;49.142;7.768;2023-05-10T00:53:51;16.20;76.70
5868;DHT22;2960;49.142;7.768;2023-05-10T00:56:18;16.20;76.70
5868;DHT22;2960;49.142;7.768;2023-05-10T00:58:48;16.20;76.90
5868;DHT22;2960;49.142;7.768;2023-05-10T01:01:15;16.20;76.90
5868;DHT22;2960;49.142;7.768;2023-05-10T01:03:44;16.20;76.90
5868;DHT22;2960;49.142;7.768;2023-05-10T01:06:12;16.20;76.90
5868;DHT22;2960;49.142;7.768;2023-05-10T01:08:39;16.20;76.90
5868;DHT22;2960;49.142;7.768;2023-05-10T01:11:07;16.20;76.90
5868;DHT22;2960;49.142;7.768;2023-05-10T01:13:36;16.20;76.90
5868;DHT22;2960;49.142;7.768;2023-05-10T01:16:05;16.20;77.80
5868;DHT22;2960;49.142;7.768;2023-05-10T01:18:36;16.20;77.10
5868;DHT22;2960;49.142;7.768;2023-05-10T01:21:21;16.10;77.00
5868;DHT22;2960;49.142;7.768;2023-05-10T01:27:25;16.10;77.20
5868;DHT22;2960;49.142;7.768;2023-05-10T01:30:08;16.10;77.50
5868;DHT22;2960;49.142;7.768;2023-05-10T01:32:58;16.10;77.60
5868;DHT22;2960;49.142;7.768;2023-05-10T01:35:40;16.00;77.50
5868;DHT22;2960;49.142;7.768;2023-05-10T01:38:14;16.00;77.60
5868;DHT22;2960;49.142;7.768;2023-05-10T01:40:55;16.00;77.70
5868;DHT22;2960;49.142;7.768;2023-05-10T01:43:33;16.10;77.80
5868;DHT22;2960;49.142;7.768;2023-05-10T01:46:07;16.00;77.80
5868;DHT22;2960;49.142;7.768;2023-05-10T01:48:42;16.00;77.70
5868;DHT22;2960;49.142;7.768;2023-05-10T01:51:19;15.90;77.70
5868;DHT22;2960;49.142;7.768;2023-05-10T01:53:49;15.90;77.80
5868;DHT22;2960;49.142;7.768;2023-05-10T01:56:20;16.00;78.00
5868;DHT22;2960;49.142;7.768;2023-05-10T01:58:52;15.90;77.90
5868;DHT22;2960;49.142;7.768;2023-05-10T02:01:21;15.90;77.80
5868;DHT22;2960;49.142;7.768;2023-05-10T02:03:50;15.90;77.90
5868;DHT22;2960;49.142;7.768;2023-05-10T02:06:19;15.90;77.90
5868;DHT22;2960;49.142;7.768;2023-05-10T02:08:49;15.90;77.90
5868;DHT22;2960;49.142;7.768;2023-05-10T02:11:18;15.90;77.90
5868;DHT22;2960;49.142;7.768;2023-05-10T02:13:48;15.90;77.90
5868;DHT22;2960;49.142;7.768;2023-05-10T02:16:17;15.90;77.90
5868;DHT22;2960;49.142;7.768;2023-05-10T02:18:45;15.90;77.90
5868;DHT22;2960;49.142;7.768;2023-05-10T02:21:15;15.90;77.90
5868;DHT22;2960;49.142;7.768;2023-05-10T02:23:43;15.80;77.80
5868;DHT22;2960;49.142;7.768;2023-05-10T02:26:13;15.80;77.90
5868;DHT22;2960;49.142;7.768;2023-05-10T02:28:40;15.80;77.90
5868;DHT22;2960;49.142;7.768;2023-05-10T02:31:09;15.80;77.90
5868;DHT22;2960;49.142;7.768;2023-05-10T02:33:38;15.80;77.90
5868;DHT22;2960;49.142;7.768;2023-05-10T02:36:07;15.80;77.80
5868;DHT22;2960;49.142;7.768;2023-05-10T02:38:37;15.80;77.90
5868;DHT22;2960;49.142;7.768;2023-05-10T02:41:05;15.80;77.70
5868;DHT22;2960;49.142;7.768;2023-05-10T02:43:35;15.80;77.80
5868;DHT22;2960;49.142;7.768;2023-05-10T02:46:03;15.80;77.80
5868;DHT22;2960;49.142;7.768;2023-05-10T02:48:30;15.80;77.80
5868;DHT22;2960;49.142;7.768;2023-05-10T02:51:03;15.80;77.80
5868;DHT22;2960;49.142;7.768;2023-05-10T02:53:34;15.70;77.80
5868;DHT22;2960;49.142;7.768;2023-05-10T02:56:08;15.70;77.80
5868;DHT22;2960;49.142;7.768;2023-05-10T02:58:38;15.70;77.90
5868;DHT22;2960;49.142;7.768;2023-05-10T03:01:06;15.70;77.90
5868;DHT22;2960;49.142;7.768;2023-05-10T03:03:34;15.70;77.90
5868;DHT22;2960;49.142;7.768;2023-05-10T03:06:01;15.70;77.90
5868;DHT22;2960;49.142;7.768;2023-05-10T03:08:29;15.70;78.00
5868;DHT22;2960;49.142;7.768;2023-05-10T03:11:09;15.70;78.00
5868;DHT22;2960;49.142;7.768;2023-05-10T03:13:48;15.70;78.10
5868;DHT22;2960;49.142;7.768;2023-05-10T03:16:27;15.70;78.10
5868;DHT22;2960;49.142;7.768;2023-05-10T03:19:03;15.70;78.20
5868;DHT22;2960;49.142;7.768;2023-05-10T03:21:36;15.70;78.20
5868;DHT22;2960;49.142;7.768;2023-05-10T03:24:07;15.70;78.30
5868;DHT22;2960;49.142;7.768;2023-05-10T03:26:38;15.70;78.40
5868;DHT22;2960;49.142;7.768;2023-05-10T03:29:07;15.70;78.40
5868;DHT22;2960;49.142;7.768;2023-05-10T03:31:35;15.70;78.40
5868;DHT22;2960;49.142;7.768;2023-05-10T03:34:02;15.60;78.30
5868;DHT22;2960;49.142;7.768;2023-05-10T03:36:29;15.70;79.20
5868;DHT22;2960;49.142;7.768;2023-05-10T03:38:56;15.70;78.40
5868;DHT22;2960;49.142;7.768;2023-05-10T03:41:23;15.70;78.40
5868;DHT22;2960;49.142;7.768;2023-05-10T03:43:53;15.70;78.40
5868;DHT22;2960;49.142;7.768;2023-05-10T03:46:20;15.70;78.50
5868;DHT22;2960;49.142;7.768;2023-05-10T03:48:47;15.70;78.50
5868;DHT22;2960;49.142;7.768;2023-05-10T03:51:14;15.70;78.50
5868;DHT22;2960;49.142;7.768;2023-05-10T03:53:41;15.70;78.60
5868;DHT22;2960;49.142;7.768;2023-05-10T03:56:08;15.70;78.60
5868;DHT22;2960;49.142;7.768;2023-05-10T03:58:35;15.70;78.60
5868;DHT22;2960;49.142;7.768;2023-05-10T04:01:04;15.70;78.60
5868;DHT22;2960;49.142;7.768;2023-05-10T04:03:31;15.70;78.60
5868;DHT22;2960;49.142;7.768;2023-05-10T04:05:59;15.70;78.70
5868;DHT22;2960;49.142;7.768;2023-05-10T04:08:27;15.70;78.70
5868;DHT22;2960;49.142;7.768;2023-05-10T04:10:54;15.70;78.70
5868;DHT22;2960;49.142;7.768;2023-05-10T04:13:21;15.70;78.70
5868;DHT22;2960;49.142;7.768;2023-05-10T04:15:48;15.70;78.80
5868;DHT22;2960;49.142;7.768;2023-05-10T04:18:17;15.70;78.70
5868;DHT22;2960;49.142;7.768;2023-05-10T04:20:46;15.70;78.70
5868;DHT22;2960;49.142;7.768;2023-05-10T04:23:14;15.70;78.70
5868;DHT22;2960;49.142;7.768;2023-05-10T04:25:43;15.60;78.70
5868;DHT22;2960;49.142;7.768;2023-05-10T04:28:10;15.60;78.60
5868;DHT22;2960;49.142;7.768;2023-05-10T04:30:37;15.60;78.60
5868;DHT22;2960;49.142;7.768;2023-05-10T04:33:04;15.60;78.60
5868;DHT22;2960;49.142;7.768;2023-05-10T04:35:33;15.60;79.40
5868;DHT22;2960;49.142;7.768;2023-05-10T04:38:00;15.60;78.70
5868;DHT22;2960;49.142;7.768;2023-05-10T04:40:27;15.60;78.80
5868;DHT22;2960;49.142;7.768;2023-05-10T04:42:54;15.60;78.80
5868;DHT22;2960;49.142;7.768;2023-05-10T04:45:22;15.50;78.70
5868;DHT22;2960;49.142;7.768;2023-05-10T04:47:49;15.50;78.70
5868;DHT22;2960;49.142;7.768;2023-05-10T04:50:16;15.50;78.70
5868;DHT22;2960;49.142;7.768;2023-05-10T04:52:44;15.50;78.70
5868;DHT22;2960;49.142;7.768;2023-05-10T04:55:11;15.50;78.80
5868;DHT22;2960;49.142;7.768;2023-05-10T04:57:39;15.50;78.80
5868;DHT22;2960;49.142;7.768;2023-05-10T05:00:07;15.50;78.70
5868;DHT22;2960;49.142;7.768;2023-05-10T05:02:35;15.60;78.80
5868;DHT22;2960;49.142;7.768;2023-05-10T05:05:02;15.60;79.50
5868;DHT22;2960;49.142;7.768;2023-05-10T05:07:29;15.60;78.70
5868;DHT22;2960;49.142;7.768;2023-05-10T05:09:57;15.60;78.60
5868;DHT22;2960;49.142;7.768;2023-05-10T05:12:25;15.60;78.60
5868;DHT22;2960;49.142;7.768;2023-05-10T05:14:54;15.60;78.50
5868;DHT22;2960;49.142;7.768;2023-05-10T05:17:21;15.60;78.40
5868;DHT22;2960;49.142;7.768;2023-05-10T05:19:48;15.60;78.50
5868;DHT22;2960;49.142;7.768;2023-05-10T05:22:15;15.60;78.40
5868;DHT22;2960;49.142;7.768;2023-05-10T05:24:42;15.60;79.20
5868;DHT22;2960;49.142;7.768;2023-05-10T05:27:11;15.60;78.40
5868;DHT22;2960;49.142;7.768;2023-05-10T05:29:38;15.70;78.60
5868;DHT22;2960;49.142;7.768;2023-05-10T05:32:06;15.70;78.60
5868;DHT22;2960;49.142;7.768;2023-05-10T05:34:33;15.70;78.50
5868;DHT22;2960;49.142;7.768;2023-05-10T05:37:01;15.70;78.40
5868;DHT22;2960;49.142;7.768;2023-05-10T05:39:28;15.80;78.50
5868;DHT22;2960;49.142;7.768;2023-05-10T05:41:58;15.80;78.50
5868;DHT22;2960;49.142;7.768;2023-05-10T05:44:26;15.80;78.40
5868;DHT22;2960;49.142;7.768;2023-05-10T05:46:54;15.90;78.50
5868;DHT22;2960;49.142;7.768;2023-05-10T05:49:21;15.90;78.50
5868;DHT22;2960;49.142;7.768;2023-05-10T05:51:48;15.90;78.30
5868;DHT22;2960;49.142;7.768;2023-05-10T05:54:16;15.90;78.30
5868;DHT22;2960;49.142;7.768;2023-05-10T05:56:43;15.90;78.20
5868;DHT22;2960;49.142;7.768;2023-05-10T05:59:10;15.90;78.80
5868;DHT22;2960;49.142;7.768;2023-05-10T06:01:39;15.90;78.00
5868;DHT22;2960;49.142;7.768;2023-05-10T06:04:06;15.90;77.90
5868;DHT22;2960;49.142;7.768;2023-05-10T06:06:34;15.90;78.00
5868;DHT22;2960;49.142;7.768;2023-05-10T06:09:01;15.90;78.10
5868;DHT22;2960;49.142;7.768;2023-05-10T06:11:29;15.80;78.10
5868;DHT22;2960;49.142;7.768;2023-05-10T06:13:57;15.80;78.80
5868;DHT22;2960;49.142;7.768;2023-05-10T06:16:24;15.80;78.10
5868;DHT22;2960;49.142;7.768;2023-05-10T06:18:53;15.80;78.10
5868;DHT22;2960;49.142;7.768;2023-05-10T06:21:20;15.80;78.10
5868;DHT22;2960;49.142;7.768;2023-05-10T06:23:48;15.80;78.10
5868;DHT22;2960;49.142;7.768;2023-05-10T06:26:15;15.80;78.20
5868;DHT22;2960;49.142;7.768;2023-05-10T06:28:42;15.80;78.90
5868;DHT22;2960;49.142;7.768;2023-05-10T06:31:09;15.80;78.00
5868;DHT22;2960;49.142;7.768;2023-05-10T06:33:37;15.90;78.00
5868;DHT22;2960;49.142;7.768;2023-05-10T06:36:06;15.90;77.90
5868;DHT22;2960;49.142;7.768;2023-05-10T06:38:33;15.90;77.80
5868;DHT22;2960;49.142;7.768;2023-05-10T06:41:00;15.90;77.70
5868;DHT22;2960;49.142;7.768;2023-05-10T06:43:28;15.90;77.70
5868;DHT22;2960;49.142;7.768;2023-05-10T06:45:55;16.00;77.80
5868;DHT22;2960;49.142;7.768;2023-05-10T06:48:22;16.00;77.60
5868;DHT22;2960;49.142;7.768;2023-05-10T06:50:49;16.00;77.50
5868;DHT22;2960;49.142;7.768;2023-05-10T06:53:18;16.00;77.30
5868;DHT22;2960;49.142;7.768;2023-05-10T06:55:45;16.00;77.20
5868;DHT22;2960;49.142;7.768;2023-05-10T06:58:12;16.00;77.10
5868;DHT22;2960;49.142;7.768;2023-05-10T07:00:39;16.00;77.00
5868;DHT22;2960;49.142;7.768;2023-05-10T07:03:09;16.00;77.00
5868;DHT22;2960;49.142;7.768;2023-05-10T07:05:36;16.00;77.00
5868;DHT22;2960;49.142;7.768;2023-05-10T07:08:03;16.00;76.80
5868;DHT22;2960;49.142;7.768;2023-05-10T07:10:32;16.00;76.70
5868;DHT22;2960;49.142;7.768;2023-05-10T07:12:59;16.00;76.60
5868;DHT22;2960;49.142;7.768;2023-05-10T07:15:26;16.00;76.40
5868;DHT22;2960;49.142;7.768;2023-05-10T07:17:54;16.00;76.30
5868;DHT22;2960;49.142;7.768;2023-05-10T07:20:21;16.00;76.90
5868;DHT22;2960;49.142;7.768;2023-05-10T07:22:48;16.00;76.20
5868;DHT22;2960;49.142;7.768;2023-05-10T07:25:15;16.00;76.20
5868;DHT22;2960;49.142;7.768;2023-05-10T07:27:44;16.00;76.20
5868;DHT22;2960;49.142;7.768;2023-05-10T07:30:14;16.10;77.10
5868;DHT22;2960;49.142;7.768;2023-05-10T07:32:41;16.10;76.20
5868;DHT22;2960;49.142;7.768;2023-05-10T07:35:08;16.10;76.90
5868;DHT22;2960;49.142;7.768;2023-05-10T07:37:36;16.10;76.10
5868;DHT22;2960;49.142;7.768;2023-05-10T07:40:03;16.20;76.10
5868;DHT22;2960;49.142;7.768;2023-05-10T07:42:32;16.20;75.90
5868;DHT22;2960;49.142;7.768;2023-05-10T07:45:01;16.30;75.80
5868;DHT22;2960;49.142;7.768;2023-05-10T07:47:28;16.30;75.60
5868;DHT22;2960;49.142;7.768;2023-05-10T07:49:55;16.30;75.50
5868;DHT22;2960;49.142;7.768;2023-05-10T07:52:22;16.30;75.50
5868;DHT22;2960;49.142;7.768;2023-05-10T07:54:50;16.40;76.10
5868;DHT22;2960;49.142;7.768;2023-05-10T07:57:17;16.40;75.30
5868;DHT22;2960;49.142;7.768;2023-05-10T07:59:45;16.40;75.10
5868;DHT22;2960;49.142;7.768;2023-05-10T08:02:13;16.50;75.10
5868;DHT22;2960;49.142;7.768;2023-05-10T08:04:40;16.50;75.00
5868;DHT22;2960;49.142;7.768;2023-05-10T08:07:08;16.50;74.90
5868;DHT22;2960;49.142;7.768;2023-05-10T08:09:35;16.60;74.90
5868;DHT22;2960;49.142;7.768;2023-05-10T08:12:02;16.60;74.80
5868;DHT22;2960;49.142;7.768;2023-05-10T08:14:30;16.60;74.80
5868;DHT22;2960;49.142;7.768;2023-05-10T08:16:57;16.70;74.80
5868;DHT22;2960;49.142;7.768;2023-05-10T08:19:25;16.70;74.60
5868;DHT22;2960;49.142;7.768;2023-05-10T08:21:53;16.70;74.40
5868;DHT22;2960;49.142;7.768;2023-05-10T08:24:21;16.80;74.40
5868;DHT22;2960;49.142;7.768;2023-05-10T08:26:48;16.80;74.10
5868;DHT22;2960;49.142;7.768;2023-05-10T08:29:15;16.90;74.00
5868;DHT22;2960;49.142;7.768;2023-05-10T08:31:42;16.90;73.80
5868;DHT22;2960;49.142;7.768;2023-05-10T08:34:10;16.90;73.70
5868;DHT22;2960;49.142;7.768;2023-05-10T08:36:39;16.90;73.30
5868;DHT22;2960;49.142;7.768;2023-05-10T08:39:06;16.80;73.60
5868;DHT22;2960;49.142;7.768;2023-05-10T08:41:33;16.80;72.90
5868;DHT22;2960;49.142;7.768;2023-05-10T08:44:03;16.80;73.00
5868;DHT22;2960;49.142;7.768;2023-05-10T08:46:33;16.80;73.80
5868;DHT22;2960;49.142;7.768;2023-05-10T08:49:04;16.80;73.10
5868;DHT22;2960;49.142;7.768;2023-05-10T08:51:37;16.80;73.00
5868;DHT22;2960;49.142;7.768;2023-05-10T08:54:08;16.80;73.00
5868;DHT22;2960;49.142;7.768;2023-05-10T08:56:38;16.90;72.90
5868;DHT22;2960;49.142;7.768;2023-05-10T08:59:05;16.90;72.90
5868;DHT22;2960;49.142;7.768;2023-05-10T09:01:32;16.90;72.50
5868;DHT22;2960;49.142;7.768;2023-05-10T09:04:02;16.90;72.40
5868;DHT22;2960;49.142;7.768;2023-05-10T09:06:30;16.90;72.20
5868;DHT22;2960;49.142;7.768;2023-05-10T09:08:59;16.90;72.00
5868;DHT22;2960;49.142;7.768;2023-05-10T09:11:27;16.80;71.60
5868;DHT22;2960;49.142;7.768;2023-05-10T09:13:55;16.80;72.40
5868;DHT22;2960;49.142;7.768;2023-05-10T09:16:23;16.70;72.40
5868;DHT22;2960;49.142;7.768;2023-05-10T09:18:50;16.60;71.30
5868;DHT22;2960;49.142;7.768;2023-05-10T09:21:19;16.60;71.50
5868;DHT22;2960;49.142;7.768;2023-05-10T09:23:48;16.50;71.70
5868;DHT22;2960;49.142;7.768;2023-05-10T09:26:22;16.50;71.80
5868;DHT22;2960;49.142;7.768;2023-05-10T09:28:51;16.50;71.90
5868;DHT22;2960;49.142;7.768;2023-05-10T09:31:19;16.50;72.10
5868;DHT22;2960;49.142;7.768;2023-05-10T09:33:47;16.50;73.00
5868;DHT22;2960;49.142;7.768;2023-05-10T09:36:15;16.60;72.80
5868;DHT22;2960;49.142;7.768;2023-05-10T09:38:47;16.60;71.90
5868;DHT22;2960;49.142;7.768;2023-05-10T09:41:20;16.70;71.90
5868;DHT22;2960;49.142;7.768;2023-05-10T09:43:48;16.70;72.50
5868;DHT22;2960;49.142;7.768;2023-05-10T09:46:16;16.80;71.80
5868;DHT22;2960;49.142;7.768;2023-05-10T09:48:45;16.90;71.70
5868;DHT22;2960;49.142;7.768;2023-05-10T09:51:19;17.00;71.20
5868;DHT22;2960;49.142;7.768;2023-05-10T09:53:47;17.00;70.90
5868;DHT22;2960;49.142;7.768;2023-05-10T09:56:32;17.00;71.70
5868;DHT22;2960;49.142;7.768;2023-05-10T09:59:03;16.90;71.00
5868;DHT22;2960;49.142;7.768;2023-05-10T10:01:31;16.80;70.90
5868;DHT22;2960;49.142;7.768;2023-05-10T10:03:58;16.80;71.80
5868;DHT22;2960;49.142;7.768;2023-05-10T10:06:25;16.80;71.20
5868;DHT22;2960;49.142;7.768;2023-05-10T10:08:54;16.70;70.90
5868;DHT22;2960;49.142;7.768;2023-05-10T10:11:23;16.60;70.70
5868;DHT22;2960;49.142;7.768;2023-05-10T10:13:51;16.50;70.80
5868;DHT22;2960;49.142;7.768;2023-05-10T10:16:19;16.50;71.00
5868;DHT22;2960;49.142;7.768;2023-05-10T10:18:47;16.50;70.90
5868;DHT22;2960;49.142;7.768;2023-05-10T10:21:15;16.50;70.80
5868;DHT22;2960;49.142;7.768;2023-05-10T10:23:42;16.50;71.20
5868;DHT22;2960;49.142;7.768;2023-05-10T10:26:10;16.50;70.40
5868;DHT22;2960;49.142;7.768;2023-05-10T10:28:47;16.50;70.00
5868;DHT22;2960;49.142;7.768;2023-05-10T10:31:26;16.50;70.10
5868;DHT22;2960;49.142;7.768;2023-05-10T10:34:03;16.50;70.00
5868;DHT22;2960;49.142;7.768;2023-05-10T10:36:33;16.60;70.10
5868;DHT22;2960;49.142;7.768;2023-05-10T10:39:09;16.70;69.90
5868;DHT22;2960;49.142;7.768;2023-05-10T10:41:38;16.80;69.50
5868;DHT22;2960;49.142;7.768;2023-05-10T10:44:34;16.90;69.10
5868;DHT22;2960;49.142;7.768;2023-05-10T10:47:22;17.00;68.50
5868;DHT22;2960;49.142;7.768;2023-05-10T10:50:03;17.10;68.00
5868;DHT22;2960;49.142;7.768;2023-05-10T10:52:32;17.20;67.30
5868;DHT22;2960;49.142;7.768;2023-05-10T10:55:02;17.30;67.00
5868;DHT22;2960;49.142;7.768;2023-05-10T10:57:33;17.40;66.80
5868;DHT22;2960;49.142;7.768;2023-05-10T11:00:28;17.50;66.30
5868;DHT22;2960;49.142;7.768;2023-05-10T11:02:58;17.50;65.50
5868;DHT22;2960;49.142;7.768;2023-05-10T11:05:38;17.50;65.40
5868;DHT22;2960;49.142;7.768;2023-05-10T11:08:12;17.50;64.10
5868;DHT22;2960;49.142;7.768;2023-05-10T11:10:48;17.50;64.40
5868;DHT22;2960;49.142;7.768;2023-05-10T11:13:37;17.50;64.10
5868;DHT22;2960;49.142;7.768;2023-05-10T11:16:15;17.60;64.60
5868;DHT22;2960;49.142;7.768;2023-05-10T11:18:57;17.60;64.00
5868;DHT22;2960;49.142;7.768;2023-05-10T11:21:27;17.60;63.80
5868;DHT22;2960;49.142;7.768;2023-05-10T11:23:55;17.70;63.70
5868;DHT22;2960;49.142;7.768;2023-05-10T11:26:23;17.80;63.40
5868;DHT22;2960;49.142;7.768;2023-05-10T11:28:53;17.80;62.60
5868;DHT22;2960;49.142;7.768;2023-05-10T11:31:23;17.70;62.10
5868;DHT22;2960;49.142;7.768;2023-05-10T11:33:53;17.70;61.60
5868;DHT22;2960;49.142;7.768;2023-05-10T11:36:23;17.60;60.70
5868;DHT22;2960;49.142;7.768;2023-05-10T11:38:53;17.60;61.10
5868;DHT22;2960;49.142;7.768;2023-05-10T11:41:21;17.60;61.00
5868;DHT22;2960;49.142;7.768;2023-05-10T11:43:50;17.70;61.10
5868;DHT22;2960;49.142;7.768;2023-05-10T11:46:23;17.80;60.70
5868;DHT22;2960;49.142;7.768;2023-05-10T11:48:53;17.90;59.80
5868;DHT22;2960;49.142;7.768;2023-05-10T11:51:23;18.00;59.80
5868;DHT22;2960;49.142;7.768;2023-05-10T11:53:52;18.10;59.30
5868;DHT22;2960;49.142;7.768;2023-05-10T11:56:20;18.10;59.40
5868;DHT22;2960;49.142;7.768;2023-05-10T11:58:53;18.20;58.90
5868;DHT22;2960;49.142;7.768;2023-05-10T12:01:23;18.20;58.80
5868;DHT22;2960;49.142;7.768;2023-05-10T12:03:55;18.30;58.30
5868;DHT22;2960;49.142;7.768;2023-05-10T12:06:26;18.30;58.40
5868;DHT22;2960;49.142;7.768;2023-05-10T12:08:55;18.40;58.20
5868;DHT22;2960;49.142;7.768;2023-05-10T12:11:25;18.40;57.80
5868;DHT22;2960;49.142;7.768;2023-05-10T12:13:53;18.50;57.80
5868;DHT22;2960;49.142;7.768;2023-05-10T12:16:23;18.60;57.50
5868;DHT22;2960;49.142;7.768;2023-05-10T12:18:52;18.70;57.50
5868;DHT22;2960;49.142;7.768;2023-05-10T12:21:20;18.80;57.10
5868;DHT22;2960;49.142;7.768;2023-05-10T12:23:48;18.80;56.70
5868;DHT22;2960;49.142;7.768;2023-05-10T12:26:17;18.80;56.10
5868;DHT22;2960;49.142;7.768;2023-05-10T12:28:44;18.70;56.00
5868;DHT22;2960;49.142;7.768;2023-05-10T12:31:11;18.80;56.20
5868;DHT22;2960;49.142;7.768;2023-05-10T12:33:41;18.80;56.20
5868;DHT22;2960;49.142;7.768;2023-05-10T12:36:10;18.80;56.40
5868;DHT22;2960;49.142;7.768;2023-05-10T12:38:40;18.80;56.40
5868;DHT22;2960;49.142;7.768;2023-05-10T12:41:10;18.90;56.30
5868;DHT22;2960;49.142;7.768;2023-05-10T12:43:39;18.90;56.30
5868;DHT22;2960;49.142;7.768;2023-05-10T12:46:07;18.90;56.00
5868;DHT22;2960;49.142;7.768;2023-05-10T12:48:38;18.90;55.90
5868;DHT22;2960;49.142;7.768;2023-05-10T12:51:07;18.90;55.80
5868;DHT22;2960;49.142;7.768;2023-05-10T12:53:37;19.00;55.50
5868;DHT22;2960;49.142;7.768;2023-05-10T12:56:05;19.00;55.60
5868;DHT22;2960;49.142;7.768;2023-05-10T12:58:33;19.00;55.50
5868;DHT22;2960;49.142;7.768;2023-05-10T13:01:01;19.00;55.70
5868;DHT22;2960;49.142;7.768;2023-05-10T13:03:28;19.00;55.60
5868;DHT22;2960;49.142;7.768;2023-05-10T13:05:57;19.10;55.80
5868;DHT22;2960;49.142;7.768;2023-05-10T13:08:24;19.10;54.60
5868;DHT22;2960;49.142;7.768;2023-05-10T13:10:51;19.10;54.70
5868;DHT22;2960;49.142;7.768;2023-05-10T13:13:18;19.20;54.80
5868;DHT22;2960;49.142;7.768;2023-05-10T13:15:45;19.20;54.00
5868;DHT22;2960;49.142;7.768;2023-05-10T13:18:12;19.20;54.00
5868;DHT22;2960;49.142;7.768;2023-05-10T13:20:40;19.10;53.70
5868;DHT22;2960;49.142;7.768;2023-05-10T13:23:10;19.10;53.40
5868;DHT22;2960;49.142;7.768;2023-05-10T13:25:38;19.10;53.30
5868;DHT22;2960;49.142;7.768;2023-05-10T13:28:05;19.10;53.50
5868;DHT22;2960;49.142;7.768;2023-05-10T13:30:32;19.20;53.70
5868;DHT22;2960;49.142;7.768;2023-05-10T13:32:59;19.20;53.40
5868;DHT22;2960;49.142;7.768;2023-05-10T13:35:29;19.30;53.10
5868;DHT22;2960;49.142;7.768;2023-05-10T13:37:56;19.30;53.10
5868;DHT22;2960;49.142;7.768;2023-05-10T13:40:24;19.30;53.30
5868;DHT22;2960;49.142;7.768;2023-05-10T13:42:51;19.30;53.30
5868;DHT22;2960;49.142;7.768;2023-05-10T13:45:19;19.40;53.50
5868;DHT22;2960;49.142;7.768;2023-05-10T13:47:46;19.40;53.40
5868;DHT22;2960;49.142;7.768;2023-05-10T13:50:13;19.50;53.40
5868;DHT22;2960;49.142;7.768;2023-05-10T13:52:40;19.60;53.40
5868;DHT22;2960;49.142;7.768;2023-05-10T13:55:08;19.70;53.60
5868;DHT22;2960;49.142;7.768;2023-05-10T13:57:39;19.80;53.40
5868;DHT22;2960;49.142;7.768;2023-05-10T14:00:07;19.80;52.90
5868;DHT22;2960;49.142;7.768;2023-05-10T14:02:35;19.80;52.10
5868;DHT22;2960;49.142;7.768;2023-05-10T14:05:03;19.80;52.30
5868;DHT22;2960;49.142;7.768;2023-05-10T14:07:31;19.80;52.40
5868;DHT22;2960;49.142;7.768;2023-05-10T14:10:00;19.80;52.30
5868;DHT22;2960;49.142;7.768;2023-05-10T14:12:27;19.90;52.50
5868;DHT22;2960;49.142;7.768;2023-05-10T14:14:56;19.90;52.30
5868;DHT22;2960;49.142;7.768;2023-05-10T14:17:23;19.90;52.40
5868;DHT22;2960;49.142;7.768;2023-05-10T14:19:53;19.90;51.70
5868;DHT22;2960;49.142;7.768;2023-05-10T14:22:23;19.80;51.70
5868;DHT22;2960;49.142;7.768;2023-05-10T14:24:50;19.80;51.90
5868;DHT22;2960;49.142;7.768;2023-05-10T14:27:17;19.80;52.10
5868;DHT22;2960;49.142;7.768;2023-05-10T14:29:44;19.80;52.20
5868;DHT22;2960;49.142;7.768;2023-05-10T14:32:13;19.90;52.30
5868;DHT22;2960;49.142;7.768;2023-05-10T14:34:40;19.90;52.30
5868;DHT22;2960;49.142;7.768;2023-05-10T14:37:10;19.90;52.40
5868;DHT22;2960;49.142;7.768;2023-05-10T14:39:37;19.90;52.40
5868;DHT22;2960;49.142;7.768;2023-05-10T14:42:04;19.90;52.40
5868;DHT22;2960;49.142;7.768;2023-05-10T14:44:31;19.80;52.20
5868;DHT22;2960;49.142;7.768;2023-05-10T14:47:01;19.80;51.90
5868;DHT22;2960;49.142;7.768;2023-05-10T14:49:29;19.70;51.70
5868;DHT22;2960;49.142;7.768;2023-05-10T14:51:57;19.60;51.60
5868;DHT22;2960;49.142;7.768;2023-05-10T14:54:24;19.60;51.70
5868;DHT22;2960;49.142;7.768;2023-05-10T14:56:51;19.60;51.50
5868;DHT22;2960;49.142;7.768;2023-05-10T14:59:18;19.60;51.50
5868;DHT22;2960;49.142;7.768;2023-05-10T15:01:46;19.60;51.80
5868;DHT22;2960;49.142;7.768;2023-05-10T15:04:13;19.60;51.80
5868;DHT22;2960;49.142;7.768;2023-05-10T15:06:43;19.60;51.80
5868;DHT22;2960;49.142;7.768;2023-05-10T15:09:10;19.60;51.60
5868;DHT22;2960;49.142;7.768;2023-05-10T15:11:41;19.50;51.60
5868;DHT22;2960;49.142;7.768;2023-05-10T15:14:08;19.50;51.80
5868;DHT22;2960;49.142;7.768;2023-05-10T15:16:35;19.50;52.40
5868;DHT22;2960;49.142;7.768;2023-05-10T15:19:03;19.40;52.40
5868;DHT22;2960;49.142;7.768;2023-05-10T15:21:31;19.40;52.00
5868;DHT22;2960;49.142;7.768;2023-05-10T15:24:05;19.40;52.10
5868;DHT22;2960;49.142;7.768;2023-05-10T15:26:33;19.40;52.20
5868;DHT22;2960;49.142;7.768;2023-05-10T15:29:01;19.40;52.20
5868;DHT22;2960;49.142;7.768;2023-05-10T15:31:28;19.30;52.20
5868;DHT22;2960;49.142;7.768;2023-05-10T15:33:57;19.30;52.30
5868;DHT22;2960;49.142;7.768;2023-05-10T15:36:25;19.20;52.60
5868;DHT22;2960;49.142;7.768;2023-05-10T15:38:53;19.20;52.70
5868;DHT22;2960;49.142;7.768;2023-05-10T15:41:22;19.20;52.80
5868;DHT22;2960;49.142;7.768;2023-05-10T15:43:50;19.20;52.90
5868;DHT22;2960;49.142;7.768;2023-05-10T15:46:17;19.10;52.80
5868;DHT22;2960;49.142;7.768;2023-05-10T15:48:44;19.10;52.90
5868;DHT22;2960;49.142;7.768;2023-05-10T15:51:11;19.10;53.10
5868;DHT22;2960;49.142;7.768;2023-05-10T15:53:38;19.10;53.20
5868;DHT22;2960;49.142;7.768;2023-05-10T15:56:06;19.10;53.30
5868;DHT22;2960;49.142;7.768;2023-05-10T15:58:35;19.10;53.30
5868;DHT22;2960;49.142;7.768;2023-05-10T16:01:03;19.10;53.30
5868;DHT22;2960;49.142;7.768;2023-05-10T16:03:30;19.10;53.50
5868;DHT22;2960;49.142;7.768;2023-05-10T16:05:57;19.10;53.50
5868;DHT22;2960;49.142;7.768;2023-05-10T16:08:24;19.10;53.50
5868;DHT22;2960;49.142;7.768;2023-05-10T16:10:51;19.10;53.40
5868;DHT22;2960;49.142;7.768;2023-05-10T16:13:18;19.10;53.40
5868;DHT22;2960;49.142;7.768;2023-05-10T16:15:47;19.20;53.40
5868;DHT22;2960;49.142;7.768;2023-05-10T16:18:14;19.20;53.40